Gravesend-broadness, United Kingdom

11:07 AM BST on April 24, 2017 (GMT +0100)
Ingress Park, Greenhithe | | Change Station

Elev 40 ft 51.45 °N, 0.29 °E | Updated 7 minutes ago

Mostly Cloudy
Mostly Cloudy
56.8 °F
Feels Like 56.8 °F
N
1.5
Wind Variable Wind from NNW
Gusts 6.9 mph

Today
High -- | Low -- °F
--% Chance of Precip.
Yesterday
High -- | Low -- °F
Precip. -- in
Pressure 30.01 in
Visibility 6.2 miles
Clouds Mostly Cloudy 3600 ft
Overcast 4500 ft
Dew Point 44 °F
Humidity 62%
Rainfall 0.00 in
Snow Depth Not available.
5:44 AM 8:10 PM
Waning Crescent, 6% visible
METAR EGLC 240950Z AUTO 29009KT 9999 BKN036 OVC045 13/06 Q1016
Pressure 30.01 in
Visibility 6.2 miles
Clouds Mostly Cloudy 3600 ft
Overcast 4500 ft
Dew Point 44 °F
Humidity 62%
Rainfall 0.00 in
Snow Depth Not available.
5:44 AM 8:10 PM
Waning Crescent, 6% visible
METAR EGLC 240950Z AUTO 29009KT 9999 BKN036 OVC045 13/06 Q1016

Get Severe Weather Alerts

Thanks for signing up!

Be on the lookout for a verification email in your inbox.

You'll start receiving the daily forecast at 8 AM.

×

10-Day Weather Forecast

×

Almanac

Astronomy

Apr. 24, 2017 Rise Set
Actual Time
Civil Twilight
Nautical Twilight
Astronomical Twilight
Moon
Length of Visible Light
Length of Day
Tomorrow will be .
, % of the Moon is Illuminated

Today's Extremes

Country Highs Country Lows

Community

WunderPhotos

WunderBlog® & News

Nearby

Air Quality

  Air Quality AQ Index Pollutant
Not available.

Snow Depth

Station Depth Elevation

Earthquake Activity

City Distance Mag. Time & Date
Minimum magnitude displayed is 2.5.

Coastal Water Temperatures

Place Temperature

Stations

Nearby Weather Stations

Station Location Temp. Windchill Dew Point Humidity Wind Precip. Elev Updated Type